Hlavní strana
METAR-TAF:

METAR-TAF

Letiště :

Letiště Palma de Mallorca

Palma de Mallorca, Španělsko

zeměpisná šířka: 39-33N, zeměpisná délka: 002-44E, výška: 4 m

Aktuální stav počasí

Zpráva byla vytvořena před 20 minutami, v 03:00 UTC
Východoseverovýchodní vítr 4 kt
Teplota 4°C
Vlhkost vzduchu 100%
Tlak 1021 hPa
Viditelnost 10 km a více
Skoro jasno ve výšce 1800 ft

METAR: LEPA 190300Z 07004KT 9999 FEW018 04/04 Q1021 NOSIG

Čas: 04:20 (03:20 UTC)

Předpověď počasí

Zpráva byla vytvořena před 4 hodinami a 20 minutami, v 23:00 UTC
Předpověď platná od 19 v 00 UTC do 19 v 24 UTC
vítr z různých směrů 3 kt
Viditelnost 10 km a více
Skoro jasno ve výšce 3000 ft
Změna
od 19 v 08 UTC do 19 v 10 UTC
Západojihozápadní vítr 12 kt
Dočasný
od 19 v 14 UTC do 19 v 18 UTC
Severozápadní vítr 12 kt s nárazy do 22 kt
Změna
od 19 v 18 UTC do 19 v 20 UTC
vítr z různých směrů 3 kt

TAF: LEPA 182300Z 1900/1924 VRB03KT 9999 FEW030 TX17/1912Z TN06/1906Z BECMG 1908/1910 25012KT TEMPO 1914/1918 31012G22KT BECMG 1918/1920 VRB03KT

Stav a předpovědi počasí z více než 4 000 letišť (zprávy METAR a TAF).

Červené a žluté tečky na mapě představují dostupné meteorologické stanice.

Když kurzor umístíte na tečku, zobrazí se název stanice.

Pak kliknutím zobrazíte stav a předpověď počasí.

Chcete-li změnit mapu, kliknutím na zelené tlačítko se znaménkem +mapu přiblížíte, kliknutím na zelené tlačítko se znaménkem – mapu oddálíte a kliknutím na zelené šipky přejdete na sousední mapy.


METAR-TAF: